createdAt,value
2018-10-06T00:01:29.570Z,9.73
2018-10-06T00:03:57.994Z,9.74
2018-10-06T00:06:26.410Z,9.73
2018-10-06T00:08:54.938Z,9.73
2018-10-06T00:11:23.394Z,9.71
2018-10-06T00:13:51.806Z,9.71
2018-10-06T00:16:20.394Z,9.73
2018-10-06T00:18:48.878Z,9.72
2018-10-06T00:21:17.351Z,9.72
2018-10-06T00:23:46.113Z,9.74
2018-10-06T00:26:14.577Z,9.77
2018-10-06T00:28:42.966Z,9.78
2018-10-06T00:31:11.854Z,9.79
2018-10-06T00:33:40.299Z,9.79
2018-10-06T00:36:08.859Z,9.78
2018-10-06T00:38:37.438Z,9.75
2018-10-06T00:41:06.122Z,9.73
2018-10-06T00:43:34.534Z,9.72
2018-10-06T00:46:03.658Z,9.70
2018-10-06T00:48:32.527Z,9.66
2018-10-06T00:51:00.934Z,9.62
2018-10-06T00:53:30.035Z,9.59
2018-10-06T00:55:58.507Z,9.58
2018-10-06T00:58:27.031Z,9.58
2018-10-06T01:00:55.526Z,9.58
2018-10-06T01:03:23.961Z,9.57
2018-10-06T01:05:52.442Z,9.57
2018-10-06T01:08:21.225Z,9.58
2018-10-06T01:10:49.630Z,9.60
2018-10-06T01:13:18.103Z,9.62
2018-10-06T01:15:46.613Z,9.63
2018-10-06T01:18:15.067Z,9.61
2018-10-06T01:20:43.486Z,9.60
2018-10-06T01:23:12.110Z,9.62
2018-10-06T01:25:40.606Z,9.62
2018-10-06T01:28:09.035Z,9.60
2018-10-06T01:30:37.846Z,9.57
2018-10-06T01:33:06.771Z,9.54
2018-10-06T01:35:35.192Z,9.52
2018-10-06T01:38:03.899Z,9.48
2018-10-06T01:40:32.718Z,9.45
2018-10-06T01:43:01.135Z,9.43
2018-10-06T01:45:29.966Z,9.40
2018-10-06T01:47:58.386Z,9.38
2018-10-06T01:50:26.935Z,9.40
2018-10-06T01:52:55.717Z,9.39
2018-10-06T01:55:24.149Z,9.39
2018-10-06T01:57:52.565Z,9.38
2018-10-06T02:00:21.307Z,9.37
2018-10-06T02:02:49.756Z,9.36
2018-10-06T02:05:18.170Z,9.37
2018-10-06T02:07:46.715Z,9.36
2018-10-06T02:10:15.154Z,9.36
2018-10-06T02:12:43.782Z,9.36
2018-10-06T02:15:12.650Z,9.37
2018-10-06T02:17:41.080Z,9.37
2018-10-06T02:20:09.610Z,9.36
2018-10-06T02:22:38.094Z,9.34
2018-10-06T02:25:07.011Z,9.35
2018-10-06T02:27:35.468Z,9.36
2018-10-06T02:30:04.192Z,9.37
2018-10-06T02:32:32.620Z,9.39
2018-10-06T02:35:01.342Z,9.42
2018-10-06T02:37:29.975Z,9.42
2018-10-06T02:39:58.446Z,9.46
2018-10-06T02:42:26.862Z,9.49
2018-10-06T02:44:55.648Z,9.49
2018-10-06T02:47:24.098Z,9.50
2018-10-06T02:49:52.528Z,9.52
2018-10-06T02:52:21.402Z,9.51
2018-10-06T02:54:49.838Z,9.54
2018-10-06T02:57:18.366Z,9.55
2018-10-06T02:59:46.858Z,9.56
2018-10-06T03:02:15.815Z,9.58
2018-10-06T03:04:44.213Z,9.60
2018-10-06T03:07:13.506Z,9.61
2018-10-06T03:09:41.919Z,9.54
2018-10-06T03:12:10.325Z,9.62
2018-10-06T03:14:38.767Z,9.63
2018-10-06T03:17:07.302Z,9.65
2018-10-06T03:19:35.711Z,9.64
2018-10-06T03:22:04.243Z,9.64
2018-10-06T03:24:33.007Z,9.67
2018-10-06T03:27:01.467Z,9.63
2018-10-06T03:29:29.938Z,9.70
2018-10-06T03:31:58.364Z,9.72
2018-10-06T03:34:26.779Z,9.73
2018-10-06T03:36:55.263Z,9.74
2018-10-06T03:39:23.678Z,9.74
2018-10-06T03:41:52.081Z,9.74
2018-10-06T03:44:20.711Z,9.76
2018-10-06T03:46:49.177Z,9.76
2018-10-06T03:49:17.567Z,9.77
2018-10-06T03:51:46.059Z,9.76
2018-10-06T03:54:14.627Z,9.76
2018-10-06T03:56:44.038Z,9.78
2018-10-06T03:59:13.146Z,9.78
2018-10-06T04:01:41.682Z,9.78
2018-10-06T04:04:10.491Z,9.79
2018-10-06T04:06:39.037Z,9.81
2018-10-06T04:09:08.835Z,9.81
2018-10-06T04:11:37.435Z,9.83
2018-10-06T04:14:06.491Z,9.83
2018-10-06T04:16:34.919Z,9.82
2018-10-06T04:19:03.441Z,9.81
2018-10-06T04:21:41.826Z,9.81
2018-10-06T04:24:10.226Z,9.81
2018-10-06T04:26:38.674Z,9.81
2018-10-06T04:29:07.279Z,9.81
2018-10-06T04:31:35.711Z,9.81
2018-10-06T04:34:04.134Z,9.80
2018-10-06T04:36:32.663Z,9.79
2018-10-06T04:39:01.116Z,9.79
2018-10-06T04:41:29.907Z,9.80
2018-10-06T04:43:58.536Z,9.80
2018-10-06T04:46:27.235Z,9.80
2018-10-06T04:48:55.658Z,9.80
2018-10-06T04:51:24.266Z,9.80
2018-10-06T04:53:52.702Z,9.80
2018-10-06T04:56:21.393Z,9.79
2018-10-06T04:58:50.190Z,9.79
2018-10-06T05:01:18.582Z,9.80
2018-10-06T05:03:47.124Z,9.80
2018-10-06T05:06:15.760Z,9.81
2018-10-06T05:08:44.156Z,9.81
2018-10-06T05:11:12.759Z,9.79
2018-10-06T05:13:41.285Z,9.82
2018-10-06T05:16:09.707Z,9.82
2018-10-06T05:18:38.567Z,9.81
2018-10-06T05:21:07.434Z,9.82
2018-10-06T05:23:35.942Z,9.81
2018-10-06T05:26:04.322Z,9.82
2018-10-06T05:28:33.186Z,9.82
2018-10-06T05:31:01.591Z,9.84
2018-10-06T05:33:30.059Z,9.83
2018-10-06T05:35:58.592Z,9.85
2018-10-06T05:38:27.045Z,9.85
2018-10-06T05:40:55.455Z,9.85
2018-10-06T05:43:23.974Z,9.84
2018-10-06T05:45:52.390Z,9.85
2018-10-06T05:48:20.785Z,9.84
2018-10-06T05:50:49.626Z,9.84
2018-10-06T05:53:18.046Z,9.84
2018-10-06T05:55:46.450Z,9.85
2018-10-06T05:58:15.274Z,9.87
2018-10-06T06:00:43.683Z,9.87
2018-10-06T06:03:12.244Z,9.88
2018-10-06T06:05:40.767Z,9.88
2018-10-06T06:08:09.370Z,9.87
2018-10-06T06:10:37.755Z,9.89
2018-10-06T06:13:06.483Z,9.91
2018-10-06T06:15:34.949Z,9.93
2018-10-06T06:18:03.343Z,9.94
2018-10-06T06:20:32.543Z,9.96
2018-10-06T06:23:00.963Z,10.00
2018-10-06T06:25:29.375Z,10.01
2018-10-06T06:27:57.991Z,10.04
2018-10-06T06:30:26.422Z,10.05
2018-10-06T06:32:54.866Z,10.05
2018-10-06T06:35:23.835Z,10.04
2018-10-06T06:37:52.283Z,10.04
2018-10-06T06:40:20.678Z,10.06
2018-10-06T06:42:49.548Z,10.07
2018-10-06T06:45:17.950Z,10.11
2018-10-06T06:47:46.380Z,10.12
2018-10-06T06:50:15.319Z,10.14
2018-10-06T06:52:43.746Z,10.16
2018-10-06T06:55:12.202Z,10.14
2018-10-06T06:57:40.820Z,10.14
2018-10-06T07:00:09.684Z,10.11
2018-10-06T07:02:38.218Z,10.12
2018-10-06T07:05:07.122Z,10.16
2018-10-06T07:07:35.555Z,10.20
2018-10-06T07:10:04.115Z,10.22
2018-10-06T07:12:33.156Z,10.25
2018-10-06T07:15:01.528Z,10.31
2018-10-06T07:17:30.011Z,10.33
2018-10-06T07:19:58.554Z,10.35
2018-10-06T07:22:26.960Z,10.33
2018-10-06T07:24:55.371Z,10.33
2018-10-06T07:27:24.282Z,10.34
2018-10-06T07:29:52.735Z,10.42
2018-10-06T07:32:21.166Z,10.44
2018-10-06T07:34:50.022Z,10.45
2018-10-06T07:37:18.463Z,10.50
2018-10-06T07:39:46.878Z,10.51
2018-10-06T07:42:15.793Z,10.53
2018-10-06T07:44:44.274Z,10.52
2018-10-06T07:47:12.730Z,10.52
2018-10-06T07:49:41.284Z,10.53
2018-10-06T07:52:09.715Z,10.52
2018-10-06T07:54:38.204Z,10.54
2018-10-06T07:57:06.978Z,10.54
2018-10-06T07:59:35.387Z,10.58
2018-10-06T08:02:04.014Z,10.66
2018-10-06T08:04:33.340Z,10.71
2018-10-06T08:07:01.792Z,10.70
2018-10-06T08:09:30.215Z,10.66
2018-10-06T08:11:58.862Z,10.63
2018-10-06T08:14:27.276Z,10.57
2018-10-06T08:16:55.693Z,10.55
2018-10-06T08:19:24.262Z,10.57
2018-10-06T08:21:52.707Z,10.58
2018-10-06T08:24:21.147Z,10.70
2018-10-06T08:26:49.756Z,10.79
2018-10-06T08:29:18.159Z,10.93
2018-10-06T08:31:46.578Z,11.11
2018-10-06T08:34:15.074Z,11.28
2018-10-06T08:36:43.551Z,11.34
2018-10-06T08:39:11.997Z,11.26
2018-10-06T08:41:40.536Z,11.15
2018-10-06T08:44:08.999Z,11.36
2018-10-06T08:46:37.410Z,11.57
2018-10-06T08:49:05.939Z,11.90
2018-10-06T08:51:34.341Z,12.17
2018-10-06T08:54:02.779Z,12.54
2018-10-06T08:56:31.463Z,12.92
2018-10-06T08:58:59.723Z,13.10
2018-10-06T09:01:28.123Z,13.34
2018-10-06T09:03:57.183Z,13.64
2018-10-06T09:06:25.962Z,13.91
2018-10-06T09:08:54.447Z,13.71
2018-10-06T09:11:23.023Z,13.52
2018-10-06T09:13:51.639Z,13.25
2018-10-06T09:16:20.171Z,13.03
2018-10-06T09:18:49.304Z,12.77
2018-10-06T09:21:17.748Z,12.58
2018-10-06T09:23:46.140Z,12.51
2018-10-06T09:26:14.904Z,12.47
2018-10-06T09:28:43.327Z,12.41
2018-10-06T09:31:11.727Z,12.26
2018-10-06T09:33:40.268Z,12.24
2018-10-06T09:36:08.675Z,12.22
2018-10-06T09:38:37.096Z,12.07
2018-10-06T09:41:05.731Z,11.99
2018-10-06T09:43:34.135Z,12.04
2018-10-06T09:46:02.577Z,12.02
2018-10-06T09:48:31.387Z,11.85
2018-10-06T09:50:59.782Z,11.86
2018-10-06T09:53:28.179Z,11.96
2018-10-06T09:55:56.851Z,11.97
2018-10-06T09:58:25.250Z,11.86
2018-10-06T10:00:58.956Z,11.99
2018-10-06T10:03:32.550Z,12.28
2018-10-06T10:06:01.379Z,12.38
2018-10-06T10:08:29.799Z,12.40
2018-10-06T10:10:58.251Z,12.36
2018-10-06T10:13:26.949Z,12.27
2018-10-06T10:15:56.379Z,12.32
2018-10-06T10:18:24.966Z,12.44
2018-10-06T10:20:53.536Z,12.59
2018-10-06T10:23:22.075Z,12.59
2018-10-06T10:25:50.615Z,12.52
2018-10-06T10:28:19.305Z,12.69
2018-10-06T10:30:47.907Z,12.64
2018-10-06T10:33:16.303Z,12.54
2018-10-06T10:35:45.001Z,12.42
2018-10-06T10:38:13.420Z,12.42
2018-10-06T10:40:41.855Z,12.59
2018-10-06T10:43:10.757Z,12.64
2018-10-06T10:45:39.183Z,12.58
2018-10-06T10:48:07.649Z,12.49
2018-10-06T10:50:37.264Z,12.42
2018-10-06T10:53:05.779Z,12.28
2018-10-06T10:55:34.198Z,12.25
2018-10-06T10:58:02.854Z,12.36
2018-10-06T11:00:31.323Z,12.42
2018-10-06T11:02:59.691Z,12.46
2018-10-06T11:05:28.617Z,12.58
2018-10-06T11:07:57.171Z,12.71
2018-10-06T11:10:25.578Z,12.67
2018-10-06T11:12:54.354Z,12.71
2018-10-06T11:15:22.779Z,12.55
2018-10-06T11:17:51.335Z,12.66
2018-10-06T11:20:20.084Z,12.86
2018-10-06T11:22:48.474Z,12.97
2018-10-06T11:25:16.919Z,13.06
2018-10-06T11:27:45.848Z,13.14
2018-10-06T11:30:14.279Z,13.22
2018-10-06T11:32:42.747Z,13.20
2018-10-06T11:35:11.674Z,13.25
2018-10-06T11:37:40.197Z,13.27
2018-10-06T11:40:08.782Z,13.36
2018-10-06T11:42:37.658Z,13.26
2018-10-06T11:45:06.110Z,13.03
2018-10-06T11:47:34.507Z,12.83
2018-10-06T11:50:03.496Z,12.67
2018-10-06T11:52:31.931Z,12.60
2018-10-06T11:55:00.443Z,12.50
2018-10-06T11:57:29.139Z,12.46
2018-10-06T11:59:57.646Z,12.36
2018-10-06T12:02:26.031Z,12.26
2018-10-06T12:04:54.731Z,12.33
2018-10-06T12:07:23.146Z,12.26
2018-10-06T12:09:51.873Z,12.06
2018-10-06T12:12:20.645Z,11.94
2018-10-06T12:14:49.059Z,11.99
2018-10-06T12:17:17.466Z,11.96
2018-10-06T12:19:46.070Z,11.96
2018-10-06T12:22:14.493Z,11.86
2018-10-06T12:24:42.930Z,11.75
2018-10-06T12:27:11.839Z,11.82
2018-10-06T12:29:40.422Z,11.96
2018-10-06T12:32:08.846Z,12.02
2018-10-06T12:34:37.754Z,11.59
2018-10-06T12:37:06.185Z,12.20
2018-10-06T12:39:34.618Z,12.23
2018-10-06T12:42:03.333Z,12.24
2018-10-06T12:44:31.758Z,12.28
2018-10-06T12:47:00.172Z,12.42
2018-10-06T12:49:28.811Z,12.50
2018-10-06T12:51:57.231Z,12.56
2018-10-06T12:54:25.670Z,12.59
2018-10-06T12:56:54.547Z,12.64
2018-10-06T12:59:23.006Z,12.65
2018-10-06T13:01:51.430Z,12.64
2018-10-06T13:04:20.148Z,12.54
2018-10-06T13:06:48.603Z,12.44
2018-10-06T13:09:17.043Z,12.27
2018-10-06T13:11:46.079Z,12.15
2018-10-06T13:14:14.527Z,12.13
2018-10-06T13:16:43.011Z,12.13
2018-10-06T13:19:11.591Z,12.18
2018-10-06T13:21:40.139Z,12.15
2018-10-06T13:24:08.538Z,12.03
2018-10-06T13:26:38.454Z,11.93
2018-10-06T13:29:06.883Z,11.85
2018-10-06T13:31:35.328Z,11.82
2018-10-06T13:34:04.202Z,11.80
2018-10-06T13:36:32.590Z,11.75
2018-10-06T13:39:01.064Z,11.79
2018-10-06T13:41:29.978Z,11.88
2018-10-06T13:43:58.486Z,11.94
2018-10-06T13:46:27.003Z,11.96
2018-10-06T13:48:55.519Z,11.77
2018-10-06T13:51:23.942Z,11.68
2018-10-06T13:53:52.346Z,11.59
2018-10-06T13:56:21.199Z,11.54
2018-10-06T13:58:49.773Z,11.63
2018-10-06T14:01:18.155Z,11.68
2018-10-06T14:03:46.885Z,11.56
2018-10-06T14:06:18.213Z,11.55
2018-10-06T14:08:46.678Z,11.52
2018-10-06T14:11:21.823Z,11.44
2018-10-06T14:13:50.417Z,11.38
2018-10-06T14:16:18.859Z,11.32
2018-10-06T14:18:47.330Z,11.31
2018-10-06T14:21:15.871Z,11.28
2018-10-06T14:23:44.394Z,11.23
2018-10-06T14:26:12.890Z,11.19
2018-10-06T14:28:41.360Z,11.21
2018-10-06T14:31:09.762Z,11.21
2018-10-06T14:33:38.443Z,11.21
2018-10-06T14:36:08.272Z,11.16
2018-10-06T14:38:36.666Z,11.14
2018-10-06T14:41:05.461Z,11.05
2018-10-06T14:43:33.980Z,11.23
2018-10-06T14:46:02.386Z,11.23
2018-10-06T14:48:31.855Z,11.23
2018-10-06T14:51:00.411Z,11.17
2018-10-06T14:53:28.822Z,11.11
2018-10-06T14:55:57.539Z,11.07
2018-10-06T14:58:26.703Z,11.04
2018-10-06T15:00:55.227Z,11.01
2018-10-06T15:03:30.324Z,11.02
2018-10-06T15:05:58.762Z,11.01
2018-10-06T15:08:27.301Z,11.02
2018-10-06T15:10:55.837Z,10.98
2018-10-06T15:13:24.238Z,10.97
2018-10-06T15:15:52.848Z,10.96
2018-10-06T15:18:22.174Z,10.94
2018-10-06T15:20:50.584Z,10.92
2018-10-06T15:23:19.010Z,10.88
2018-10-06T15:25:47.615Z,10.84
2018-10-06T15:28:16.071Z,10.81
2018-10-06T15:30:44.550Z,10.80
2018-10-06T15:33:13.674Z,10.78
2018-10-06T15:35:42.086Z,10.76
2018-10-06T15:38:10.771Z,10.76
2018-10-06T15:40:39.544Z,10.74
2018-10-06T15:43:07.987Z,10.74
2018-10-06T15:45:36.458Z,10.74
2018-10-06T15:48:05.186Z,10.72
2018-10-06T15:50:33.601Z,10.72
2018-10-06T15:53:01.994Z,10.71
2018-10-06T15:55:30.648Z,10.68
2018-10-06T15:57:59.154Z,10.65
2018-10-06T16:00:27.851Z,10.63
2018-10-06T16:02:56.747Z,10.63
2018-10-06T16:05:25.118Z,10.61
2018-10-06T16:07:53.559Z,10.58
2018-10-06T16:10:22.179Z,10.55
2018-10-06T16:12:50.624Z,10.53
2018-10-06T16:15:19.098Z,10.51
2018-10-06T16:17:48.178Z,10.49
2018-10-06T16:20:16.583Z,10.48
2018-10-06T16:22:45.010Z,10.46
2018-10-06T16:25:13.659Z,10.46
2018-10-06T16:27:42.207Z,10.44
2018-10-06T16:30:10.661Z,10.43
2018-10-06T16:32:39.254Z,10.40
2018-10-06T16:35:07.991Z,10.38
2018-10-06T16:37:36.431Z,10.38
2018-10-06T16:40:05.834Z,10.36
2018-10-06T16:42:34.298Z,10.22
2018-10-06T16:45:02.819Z,10.30
2018-10-06T16:47:31.891Z,10.28
2018-10-06T16:50:00.337Z,10.25
2018-10-06T16:52:28.739Z,10.24
2018-10-06T16:54:57.271Z,10.23
2018-10-06T16:57:25.674Z,10.23
2018-10-06T16:59:54.162Z,10.22
2018-10-06T17:02:22.762Z,10.23
2018-10-06T17:04:51.174Z,10.25
2018-10-06T17:07:19.590Z,10.25
2018-10-06T17:09:48.535Z,10.26
2018-10-06T17:12:16.972Z,10.27
2018-10-06T17:14:45.342Z,10.22
2018-10-06T17:17:13.876Z,10.19
2018-10-06T17:19:43.622Z,10.17
2018-10-06T17:22:12.299Z,10.15
2018-10-06T17:24:40.938Z,10.13
2018-10-06T17:27:09.370Z,10.14
2018-10-06T17:29:37.906Z,10.14
2018-10-06T17:32:06.456Z,10.11
2018-10-06T17:34:34.967Z,10.05
2018-10-06T17:37:03.406Z,10.02
2018-10-06T17:39:31.966Z,10.00
2018-10-06T17:42:00.418Z,9.99
2018-10-06T17:44:29.032Z,9.98
2018-10-06T17:46:57.447Z,9.99
2018-10-06T17:49:25.857Z,10.01
2018-10-06T17:51:54.269Z,9.98
2018-10-06T17:54:22.926Z,9.98
2018-10-06T17:56:51.481Z,10.00
2018-10-06T17:59:19.875Z,10.02
2018-10-06T18:01:48.784Z,10.01
2018-10-06T18:04:17.510Z,9.99
2018-10-06T18:06:46.007Z,9.95
2018-10-06T18:09:14.710Z,9.97
2018-10-06T18:11:43.111Z,9.96
2018-10-06T18:14:11.514Z,9.98
2018-10-06T18:16:40.115Z,10.00
2018-10-06T18:19:08.520Z,9.93
2018-10-06T18:21:37.487Z,9.88
2018-10-06T18:24:05.996Z,9.87
2018-10-06T18:26:34.409Z,9.86
2018-10-06T18:29:02.918Z,9.84
2018-10-06T18:31:31.995Z,9.82
2018-10-06T18:34:00.497Z,9.82
2018-10-06T18:36:29.253Z,9.84
2018-10-06T18:38:57.679Z,9.84
2018-10-06T18:41:26.076Z,9.85
2018-10-06T18:43:54.771Z,9.87
2018-10-06T18:46:23.578Z,9.89
2018-10-06T18:48:52.107Z,9.87
2018-10-06T18:51:20.555Z,9.83
2018-10-06T18:53:49.822Z,9.79
2018-10-06T18:56:18.232Z,9.78
2018-10-06T18:58:46.812Z,9.79
2018-10-06T19:01:15.315Z,9.78
2018-10-06T19:03:43.850Z,9.80
2018-10-06T19:06:12.147Z,9.81
2018-10-06T19:08:40.834Z,9.79
2018-10-06T19:11:09.231Z,9.73
2018-10-06T19:13:37.648Z,9.70
2018-10-06T19:16:06.537Z,9.69
2018-10-06T19:18:34.938Z,9.68
2018-10-06T19:21:03.411Z,9.68
2018-10-06T19:23:32.138Z,9.66
2018-10-06T19:26:00.551Z,9.66
2018-10-06T19:28:28.967Z,9.67
2018-10-06T19:30:57.657Z,9.64
2018-10-06T19:33:26.289Z,9.65
2018-10-06T19:35:54.675Z,9.63
2018-10-06T19:38:23.199Z,9.61
2018-10-06T19:40:51.622Z,9.60
2018-10-06T19:43:20.023Z,9.60
2018-10-06T19:45:48.702Z,9.56
2018-10-06T19:48:17.038Z,9.51
2018-10-06T19:50:45.431Z,9.50
2018-10-06T19:53:14.267Z,9.49
2018-10-06T19:55:42.732Z,9.48
2018-10-06T19:58:11.157Z,9.44
2018-10-06T20:00:40.048Z,9.42
2018-10-06T20:03:08.443Z,9.41
2018-10-06T20:05:36.860Z,9.40
2018-10-06T20:08:05.809Z,9.41
2018-10-06T20:10:34.534Z,9.42
2018-10-06T20:13:02.935Z,9.45
2018-10-06T20:15:31.831Z,9.44
2018-10-06T20:18:00.242Z,9.47
2018-10-06T20:20:28.870Z,9.47
2018-10-06T20:22:57.686Z,9.49
2018-10-06T20:25:26.215Z,9.52
2018-10-06T20:27:54.614Z,9.55
2018-10-06T20:30:23.143Z,9.39
2018-10-06T20:32:52.495Z,9.57
2018-10-06T20:35:23.577Z,9.58
2018-10-06T20:37:54.006Z,9.59
2018-10-06T20:40:23.667Z,9.58
2018-10-06T20:42:53.830Z,9.58
2018-10-06T20:45:24.726Z,9.58
2018-10-06T20:47:53.131Z,9.57
2018-10-06T20:50:21.591Z,9.57
2018-10-06T20:52:50.402Z,9.53
2018-10-06T20:55:18.863Z,9.52
2018-10-06T20:57:47.458Z,9.51
2018-10-06T21:00:16.296Z,9.50
2018-10-06T21:02:44.710Z,9.49
2018-10-06T21:05:13.442Z,9.44
2018-10-06T21:07:42.252Z,9.40
2018-10-06T21:10:11.212Z,9.37
2018-10-06T21:12:40.195Z,9.33
2018-10-06T21:15:09.993Z,9.33
2018-10-06T21:17:39.991Z,9.30
2018-10-06T21:20:09.401Z,9.27
2018-10-06T21:22:38.418Z,9.24
2018-10-06T21:25:06.878Z,9.23
2018-10-06T21:27:35.450Z,9.26
2018-10-06T21:30:04.054Z,9.28
2018-10-06T21:32:32.439Z,9.31
2018-10-06T21:35:01.047Z,9.33
2018-10-06T21:37:29.797Z,9.36
2018-10-06T21:39:58.187Z,9.35
2018-10-06T21:42:26.614Z,9.36
2018-10-06T21:44:55.174Z,9.37
2018-10-06T21:47:23.614Z,9.39
2018-10-06T21:49:52.054Z,9.40
2018-10-06T21:52:20.595Z,9.42
2018-10-06T21:54:49.067Z,9.43
2018-10-06T21:57:17.488Z,9.43
2018-10-06T21:59:46.139Z,9.39
2018-10-06T22:02:14.590Z,9.35
2018-10-06T22:04:43.046Z,9.35
2018-10-06T22:07:11.910Z,9.36
2018-10-06T22:09:40.998Z,9.37
2018-10-06T22:12:09.518Z,9.36
2018-10-06T22:14:38.457Z,9.35
2018-10-06T22:17:06.922Z,9.34
2018-10-06T22:19:35.326Z,9.34
2018-10-06T22:22:04.335Z,9.34
2018-10-06T22:24:32.860Z,9.33
2018-10-06T22:27:01.300Z,9.34
2018-10-06T22:29:30.374Z,9.35
2018-10-06T22:31:58.779Z,9.34
2018-10-06T22:34:27.172Z,9.33
2018-10-06T22:36:56.120Z,9.32
2018-10-06T22:39:24.609Z,9.33
2018-10-06T22:41:53.010Z,9.34
2018-10-06T22:44:21.588Z,9.33
2018-10-06T22:46:50.035Z,9.32
2018-10-06T22:49:18.463Z,9.32
2018-10-06T22:51:46.986Z,9.30
2018-10-06T22:54:15.404Z,9.30
2018-10-06T22:56:43.940Z,9.27
2018-10-06T22:59:12.858Z,9.21
2018-10-06T23:01:41.287Z,9.18
2018-10-06T23:04:09.883Z,9.17
2018-10-06T23:06:38.444Z,9.18
2018-10-06T23:09:08.982Z,9.19
2018-10-06T23:11:37.479Z,9.20
2018-10-06T23:14:06.390Z,9.21
2018-10-06T23:16:34.843Z,9.21
2018-10-06T23:19:03.262Z,9.20
2018-10-06T23:21:31.818Z,9.21
2018-10-06T23:24:00.666Z,9.22
2018-10-06T23:26:29.155Z,9.21
2018-10-06T23:28:58.222Z,9.19
2018-10-06T23:31:27.066Z,9.18
2018-10-06T23:33:55.756Z,9.19
2018-10-06T23:36:24.254Z,9.19
2018-10-06T23:38:52.638Z,9.19
2018-10-06T23:41:21.153Z,9.18
2018-10-06T23:43:50.330Z,9.15
2018-10-06T23:46:18.754Z,9.14
2018-10-06T23:48:47.147Z,8.99
2018-10-06T23:51:15.700Z,9.05
2018-10-06T23:53:44.130Z,9.01
2018-10-06T23:56:12.531Z,8.96
2018-10-06T23:58:41.312Z,8.91
